sensor_id;sensor_type;location;lat;lon;timestamp;P1;durP1;ratioP1;P2;durP2;ratioP2
15293;SDS011;74171;52.534;13.436;2023-11-21T00:18:40;21.27;;;13.63;;
15293;SDS011;74171;52.534;13.436;2023-11-21T00:52:23;37.77;;;18.13;;
15293;SDS011;74171;52.534;13.436;2023-11-21T00:55:25;33.30;;;18.63;;
15293;SDS011;74171;52.534;13.436;2023-11-21T01:02:02;45.23;;;21.27;;
15293;SDS011;74171;52.534;13.436;2023-11-21T01:37:39;57.77;;;21.83;;
15293;SDS011;74171;52.534;13.436;2023-11-21T01:40:40;43.70;;;19.30;;
15293;SDS011;74171;52.534;13.436;2023-11-21T01:43:36;40.27;;;19.37;;
15293;SDS011;74171;52.534;13.436;2023-11-21T01:50:04;38.43;;;17.23;;
15293;SDS011;74171;52.534;13.436;2023-11-21T02:09:02;28.97;;;13.07;;
15293;SDS011;74171;52.534;13.436;2023-11-21T02:14:48;23.70;;;13.07;;
15293;SDS011;74171;52.534;13.436;2023-11-21T02:21:13;26.60;;;12.23;;
15293;SDS011;74171;52.534;13.436;2023-11-21T02:43:55;13.57;;;8.60;;
15293;SDS011;74171;52.534;13.436;2023-11-21T02:46:44;17.73;;;9.67;;
15293;SDS011;74171;52.534;13.436;2023-11-21T02:49:27;16.83;;;10.90;;
15293;SDS011;74171;52.534;13.436;2023-11-21T02:52:00;17.53;;;10.80;;
15293;SDS011;74171;52.534;13.436;2023-11-21T02:58:29;18.63;;;11.83;;
15293;SDS011;74171;52.534;13.436;2023-11-21T03:11:00;14.97;;;10.97;;
15293;SDS011;74171;52.534;13.436;2023-11-21T03:14:06;14.80;;;10.33;;
15293;SDS011;74171;52.534;13.436;2023-11-21T03:20:35;17.17;;;11.70;;
15293;SDS011;74171;52.534;13.436;2023-11-21T03:23:18;15.00;;;10.63;;
15293;SDS011;74171;52.534;13.436;2023-11-21T03:52:45;12.83;;;9.73;;
15293;SDS011;74171;52.534;13.436;2023-11-21T04:04:15;10.67;;;6.90;;
15293;SDS011;74171;52.534;13.436;2023-11-21T04:07:13;9.80;;;7.80;;
15293;SDS011;74171;52.534;13.436;2023-11-21T04:10:11;10.33;;;7.83;;
15293;SDS011;74171;52.534;13.436;2023-11-21T04:12:40;10.13;;;7.70;;
15293;SDS011;74171;52.534;13.436;2023-11-21T04:15:10;13.43;;;8.60;;
15293;SDS011;74171;52.534;13.436;2023-11-21T04:17:42;8.73;;;7.17;;
15293;SDS011;74171;52.534;13.436;2023-11-21T04:20:30;8.77;;;7.23;;
15293;SDS011;74171;52.534;13.436;2023-11-21T04:23:17;11.33;;;7.80;;
15293;SDS011;74171;52.534;13.436;2023-11-21T04:25:53;10.10;;;7.37;;
15293;SDS011;74171;52.534;13.436;2023-11-21T04:28:27;8.47;;;6.90;;
15293;SDS011;74171;52.534;13.436;2023-11-21T04:31:00;9.73;;;6.97;;
15293;SDS011;74171;52.534;13.436;2023-11-21T04:33:55;9.20;;;6.90;;
15293;SDS011;74171;52.534;13.436;2023-11-21T04:36:25;9.87;;;7.20;;
15293;SDS011;74171;52.534;13.436;2023-11-21T04:39:08;8.93;;;6.53;;
15293;SDS011;74171;52.534;13.436;2023-11-21T04:44:34;8.93;;;6.97;;
15293;SDS011;74171;52.534;13.436;2023-11-21T04:47:18;7.93;;;6.30;;
15293;SDS011;74171;52.534;13.436;2023-11-21T04:49:52;9.33;;;6.83;;
15293;SDS011;74171;52.534;13.436;2023-11-21T04:58:33;8.27;;;7.13;;
15293;SDS011;74171;52.534;13.436;2023-11-21T05:07:25;9.83;;;7.27;;
15293;SDS011;74171;52.534;13.436;2023-11-21T05:10:05;7.00;;;6.27;;
15293;SDS011;74171;52.534;13.436;2023-11-21T05:12:48;7.37;;;5.90;;
15293;SDS011;74171;52.534;13.436;2023-11-21T05:57:18;11.40;;;7.37;;
15293;SDS011;74171;52.534;13.436;2023-11-21T06:00:11;11.70;;;7.77;;
15293;SDS011;74171;52.534;13.436;2023-11-21T06:02:52;10.27;;;7.13;;
15293;SDS011;74171;52.534;13.436;2023-11-21T06:05:37;11.67;;;7.83;;
15293;SDS011;74171;52.534;13.436;2023-11-21T06:13:49;12.43;;;7.33;;
15293;SDS011;74171;52.534;13.436;2023-11-21T06:16:23;9.10;;;6.43;;
15293;SDS011;74171;52.534;13.436;2023-11-21T06:18:56;9.30;;;6.97;;
15293;SDS011;74171;52.534;13.436;2023-11-21T06:21:32;10.10;;;6.90;;
15293;SDS011;74171;52.534;13.436;2023-11-21T06:24:00;7.87;;;6.60;;
15293;SDS011;74171;52.534;13.436;2023-11-21T06:26:31;7.53;;;6.00;;
15293;SDS011;74171;52.534;13.436;2023-11-21T06:29:01;11.93;;;6.03;;
15293;SDS011;74171;52.534;13.436;2023-11-21T06:31:30;6.70;;;5.63;;
15293;SDS011;74171;52.534;13.436;2023-11-21T06:33:59;8.27;;;6.23;;
15293;SDS011;74171;52.534;13.436;2023-11-21T06:36:29;8.03;;;5.87;;
15293;SDS011;74171;52.534;13.436;2023-11-21T06:42:51;8.07;;;6.23;;
15293;SDS011;74171;52.534;13.436;2023-11-21T07:20:37;5.83;;;4.77;;
15293;SDS011;74171;52.534;13.436;2023-11-21T07:23:07;5.23;;;4.53;;
15293;SDS011;74171;52.534;13.436;2023-11-21T07:25:41;6.10;;;4.43;;
15293;SDS011;74171;52.534;13.436;2023-11-21T07:28:23;7.50;;;5.83;;
15293;SDS011;74171;52.534;13.436;2023-11-21T07:31:19;5.77;;;4.77;;
15293;SDS011;74171;52.534;13.436;2023-11-21T07:33:49;7.77;;;5.30;;
15293;SDS011;74171;52.534;13.436;2023-11-21T07:36:24;6.23;;;5.13;;
15293;SDS011;74171;52.534;13.436;2023-11-21T07:39:06;6.67;;;5.43;;
15293;SDS011;74171;52.534;13.436;2023-11-21T07:41:36;6.70;;;5.00;;
15293;SDS011;74171;52.534;13.436;2023-11-21T07:44:12;6.70;;;5.30;;
15293;SDS011;74171;52.534;13.436;2023-11-21T07:46:56;6.80;;;5.00;;
15293;SDS011;74171;52.534;13.436;2023-11-21T07:49:49;7.70;;;4.70;;
15293;SDS011;74171;52.534;13.436;2023-11-21T07:52:19;5.77;;;5.13;;
15293;SDS011;74171;52.534;13.436;2023-11-21T07:54:48;6.63;;;5.20;;
15293;SDS011;74171;52.534;13.436;2023-11-21T07:57:21;7.80;;;5.27;;
15293;SDS011;74171;52.534;13.436;2023-11-21T07:59:51;7.47;;;4.97;;
15293;SDS011;74171;52.534;13.436;2023-11-21T08:06:09;8.23;;;4.70;;
15293;SDS011;74171;52.534;13.436;2023-11-21T08:30:39;12.43;;;6.53;;
15293;SDS011;74171;52.534;13.436;2023-11-21T08:33:11;10.47;;;6.07;;
15293;SDS011;74171;52.534;13.436;2023-11-21T08:35:45;9.43;;;5.90;;
15293;SDS011;74171;52.534;13.436;2023-11-21T08:38:50;12.03;;;6.57;;
15293;SDS011;74171;52.534;13.436;2023-11-21T08:41:37;9.33;;;6.13;;
15293;SDS011;74171;52.534;13.436;2023-11-21T08:44:07;12.23;;;6.50;;
15293;SDS011;74171;52.534;13.436;2023-11-21T09:19:39;14.77;;;7.17;;
15293;SDS011;74171;52.534;13.436;2023-11-21T09:22:51;12.90;;;7.30;;
15293;SDS011;74171;52.534;13.436;2023-11-21T09:25:30;15.10;;;7.27;;
15293;SDS011;74171;52.534;13.436;2023-11-21T09:28:20;13.03;;;7.30;;
15293;SDS011;74171;52.534;13.436;2023-11-21T09:31:43;10.43;;;5.73;;
15293;SDS011;74171;52.534;13.436;2023-11-21T09:47:41;9.03;;;5.30;;
15293;SDS011;74171;52.534;13.436;2023-11-21T09:50:14;8.40;;;4.63;;
15293;SDS011;74171;52.534;13.436;2023-11-21T09:52:49;5.80;;;3.37;;
15293;SDS011;74171;52.534;13.436;2023-11-21T09:55:20;6.17;;;3.80;;
15293;SDS011;74171;52.534;13.436;2023-11-21T09:57:50;4.30;;;3.47;;
15293;SDS011;74171;52.534;13.436;2023-11-21T10:00:26;6.77;;;3.33;;
15293;SDS011;74171;52.534;13.436;2023-11-21T10:03:24;7.50;;;3.40;;
15293;SDS011;74171;52.534;13.436;2023-11-21T10:05:56;4.33;;;3.37;;
15293;SDS011;74171;52.534;13.436;2023-11-21T10:08:30;7.43;;;3.70;;
15293;SDS011;74171;52.534;13.436;2023-11-21T10:11:15;4.77;;;3.83;;
15293;SDS011;74171;52.534;13.436;2023-11-21T10:13:49;4.40;;;3.20;;
15293;SDS011;74171;52.534;13.436;2023-11-21T10:16:18;3.83;;;3.40;;
15293;SDS011;74171;52.534;13.436;2023-11-21T10:19:09;4.67;;;3.73;;
15293;SDS011;74171;52.534;13.436;2023-11-21T10:21:48;7.43;;;3.40;;
15293;SDS011;74171;52.534;13.436;2023-11-21T10:25:06;5.33;;;3.70;;
15293;SDS011;74171;52.534;13.436;2023-11-21T12:10:37;3.33;;;3.03;;
15293;SDS011;74171;52.534;13.436;2023-11-21T12:17:15;5.10;;;3.47;;
15293;SDS011;74171;52.534;13.436;2023-11-21T16:00:40;14.33;;;10.07;;
15293;SDS011;74171;52.534;13.436;2023-11-21T16:03:12;13.97;;;10.20;;
15293;SDS011;74171;52.534;13.436;2023-11-21T16:05:48;14.47;;;10.03;;
15293;SDS011;74171;52.534;13.436;2023-11-21T19:13:48;12.37;;;7.20;;
15293;SDS011;74171;52.534;13.436;2023-11-21T19:16:26;12.50;;;6.40;;
15293;SDS011;74171;52.534;13.436;2023-11-21T19:22:47;10.27;;;7.43;;
15293;SDS011;74171;52.534;13.436;2023-11-21T19:41:31;10.13;;;7.17;;
15293;SDS011;74171;52.534;13.436;2023-11-21T19:44:10;11.53;;;7.43;;
15293;SDS011;74171;52.534;13.436;2023-11-21T19:46:53;9.50;;;6.83;;
15293;SDS011;74171;52.534;13.436;2023-11-21T19:56:22;10.43;;;7.27;;
15293;SDS011;74171;52.534;13.436;2023-11-21T21:01:12;10.70;;;7.07;;
15293;SDS011;74171;52.534;13.436;2023-11-21T21:03:44;13.07;;;7.77;;
15293;SDS011;74171;52.534;13.436;2023-11-21T21:06:17;10.23;;;6.90;;
15293;SDS011;74171;52.534;13.436;2023-11-21T21:08:50;10.17;;;6.87;;
15293;SDS011;74171;52.534;13.436;2023-11-21T21:15:20;12.63;;;6.93;;
15293;SDS011;74171;52.534;13.436;2023-11-21T21:20:57;10.57;;;6.63;;
15293;SDS011;74171;52.534;13.436;2023-11-21T21:23:27;10.37;;;6.80;;
15293;SDS011;74171;52.534;13.436;2023-11-21T21:25:58;11.03;;;7.53;;
15293;SDS011;74171;52.534;13.436;2023-11-21T21:29:05;10.17;;;6.93;;
15293;SDS011;74171;52.534;13.436;2023-11-21T21:35:30;13.03;;;7.90;;
15293;SDS011;74171;52.534;13.436;2023-11-21T21:41:44;13.87;;;7.20;;
15293;SDS011;74171;52.534;13.436;2023-11-21T21:44:14;11.67;;;7.10;;
15293;SDS011;74171;52.534;13.436;2023-11-21T21:46:58;14.93;;;7.47;;
15293;SDS011;74171;52.534;13.436;2023-11-21T21:49:56;10.53;;;7.03;;
15293;SDS011;74171;52.534;13.436;2023-11-21T21:52:39;12.30;;;7.43;;
15293;SDS011;74171;52.534;13.436;2023-11-21T21:55:11;10.17;;;6.90;;
15293;SDS011;74171;52.534;13.436;2023-11-21T21:58:58;9.83;;;6.93;;
15293;SDS011;74171;52.534;13.436;2023-11-21T23:13:51;9.67;;;5.70;;
15293;SDS011;74171;52.534;13.436;2023-11-21T23:16:34;7.13;;;5.37;;
15293;SDS011;74171;52.534;13.436;2023-11-21T23:40:26;7.93;;;5.63;;
15293;SDS011;74171;52.534;13.436;2023-11-21T23:43:05;7.23;;;5.30;;
15293;SDS011;74171;52.534;13.436;2023-11-21T23:46:01;7.10;;;5.23;;
15293;SDS011;74171;52.534;13.436;2023-11-21T23:49:03;8.23;;;5.03;;
15293;SDS011;74171;52.534;13.436;2023-11-21T23:51:46;7.10;;;5.17;;
15293;SDS011;74171;52.534;13.436;2023-11-21T23:54:21;9.20;;;5.87;;
